sensor_id;sensor_type;location;lat;lon;timestamp;P1;durP1;ratioP1;P2;durP2;ratioP2
18685;SDS011;9473;52.342;13.110;2022-09-09T00:00:46;3.63;;;2.92;;
18685;SDS011;9473;52.342;13.110;2022-09-09T00:03:14;4.18;;;2.65;;
18685;SDS011;9473;52.342;13.110;2022-09-09T00:05:44;3.40;;;1.83;;
18685;SDS011;9473;52.342;13.110;2022-09-09T00:08:14;5.05;;;1.92;;
18685;SDS011;9473;52.342;13.110;2022-09-09T00:10:46;14.00;;;2.15;;
18685;SDS011;9473;52.342;13.110;2022-09-09T00:13:18;10.73;;;2.40;;
18685;SDS011;9473;52.342;13.110;2022-09-09T00:15:48;3.40;;;2.20;;
18685;SDS011;9473;52.342;13.110;2022-09-09T00:18:21;9.02;;;2.50;;
18685;SDS011;9473;52.342;13.110;2022-09-09T00:20:52;2.58;;;2.00;;
18685;SDS011;9473;52.342;13.110;2022-09-09T00:23:24;3.22;;;2.40;;
18685;SDS011;9473;52.342;13.110;2022-09-09T00:25:56;2.15;;;1.95;;
18685;SDS011;9473;52.342;13.110;2022-09-09T00:28:26;3.45;;;1.60;;
18685;SDS011;9473;52.342;13.110;2022-09-09T00:30:57;3.20;;;1.92;;
18685;SDS011;9473;52.342;13.110;2022-09-09T00:33:25;2.83;;;2.28;;
18685;SDS011;9473;52.342;13.110;2022-09-09T00:35:54;3.58;;;2.70;;
18685;SDS011;9473;52.342;13.110;2022-09-09T00:38:24;3.22;;;2.42;;
18685;SDS011;9473;52.342;13.110;2022-09-09T00:40:52;5.07;;;2.80;;
18685;SDS011;9473;52.342;13.110;2022-09-09T00:43:28;7.53;;;3.38;;
18685;SDS011;9473;52.342;13.110;2022-09-09T00:46:08;11.25;;;3.42;;
18685;SDS011;9473;52.342;13.110;2022-09-09T00:48:38;5.65;;;2.88;;
18685;SDS011;9473;52.342;13.110;2022-09-09T00:51:11;4.60;;;3.20;;
18685;SDS011;9473;52.342;13.110;2022-09-09T00:53:51;4.38;;;2.83;;
18685;SDS011;9473;52.342;13.110;2022-09-09T00:56:23;6.65;;;3.03;;
18685;SDS011;9473;52.342;13.110;2022-09-09T00:58:55;4.53;;;3.65;;
18685;SDS011;9473;52.342;13.110;2022-09-09T01:01:25;5.47;;;3.30;;
18685;SDS011;9473;52.342;13.110;2022-09-09T01:03:53;3.28;;;2.47;;
18685;SDS011;9473;52.342;13.110;2022-09-09T01:06:21;5.63;;;3.00;;
18685;SDS011;9473;52.342;13.110;2022-09-09T01:09:00;12.00;;;3.15;;
18685;SDS011;9473;52.342;13.110;2022-09-09T01:11:31;5.05;;;3.00;;
18685;SDS011;9473;52.342;13.110;2022-09-09T01:14:02;6.20;;;3.42;;
18685;SDS011;9473;52.342;13.110;2022-09-09T01:16:32;3.78;;;2.80;;
18685;SDS011;9473;52.342;13.110;2022-09-09T01:18:59;7.20;;;2.72;;
18685;SDS011;9473;52.342;13.110;2022-09-09T01:21:30;6.72;;;2.83;;
18685;SDS011;9473;52.342;13.110;2022-09-09T01:24:05;4.53;;;3.17;;
18685;SDS011;9473;52.342;13.110;2022-09-09T01:26:36;5.03;;;2.88;;
18685;SDS011;9473;52.342;13.110;2022-09-09T01:29:06;4.70;;;2.70;;
18685;SDS011;9473;52.342;13.110;2022-09-09T01:31:35;3.67;;;2.63;;
18685;SDS011;9473;52.342;13.110;2022-09-09T01:34:04;3.40;;;2.47;;
18685;SDS011;9473;52.342;13.110;2022-09-09T01:36:37;3.40;;;2.22;;
18685;SDS011;9473;52.342;13.110;2022-09-09T01:39:05;6.63;;;3.40;;
18685;SDS011;9473;52.342;13.110;2022-09-09T01:41:32;5.22;;;3.33;;
18685;SDS011;9473;52.342;13.110;2022-09-09T01:44:01;6.35;;;4.18;;
18685;SDS011;9473;52.342;13.110;2022-09-09T01:46:28;6.03;;;3.55;;
18685;SDS011;9473;52.342;13.110;2022-09-09T01:48:56;6.88;;;3.88;;
18685;SDS011;9473;52.342;13.110;2022-09-09T01:51:23;8.18;;;4.10;;
18685;SDS011;9473;52.342;13.110;2022-09-09T01:53:51;5.32;;;3.58;;
18685;SDS011;9473;52.342;13.110;2022-09-09T01:56:21;5.63;;;3.40;;
18685;SDS011;9473;52.342;13.110;2022-09-09T01:58:57;5.45;;;3.55;;
18685;SDS011;9473;52.342;13.110;2022-09-09T02:01:33;9.52;;;3.20;;
18685;SDS011;9473;52.342;13.110;2022-09-09T02:04:02;5.18;;;3.53;;
18685;SDS011;9473;52.342;13.110;2022-09-09T02:06:32;6.18;;;4.03;;
18685;SDS011;9473;52.342;13.110;2022-09-09T02:09:01;6.05;;;3.90;;
18685;SDS011;9473;52.342;13.110;2022-09-09T02:11:28;4.78;;;3.30;;
18685;SDS011;9473;52.342;13.110;2022-09-09T02:13:56;6.90;;;3.65;;
18685;SDS011;9473;52.342;13.110;2022-09-09T02:16:25;5.80;;;3.67;;
18685;SDS011;9473;52.342;13.110;2022-09-09T02:18:55;4.85;;;3.38;;
18685;SDS011;9473;52.342;13.110;2022-09-09T02:21:24;3.75;;;2.70;;
18685;SDS011;9473;52.342;13.110;2022-09-09T02:23:53;3.33;;;2.17;;
18685;SDS011;9473;52.342;13.110;2022-09-09T02:26:21;5.57;;;1.83;;
18685;SDS011;9473;52.342;13.110;2022-09-09T02:28:49;2.58;;;1.80;;
18685;SDS011;9473;52.342;13.110;2022-09-09T02:31:17;2.70;;;1.77;;
18685;SDS011;9473;52.342;13.110;2022-09-09T02:33:47;2.33;;;1.80;;
18685;SDS011;9473;52.342;13.110;2022-09-09T02:36:16;2.90;;;1.50;;
18685;SDS011;9473;52.342;13.110;2022-09-09T02:38:45;2.30;;;1.55;;
18685;SDS011;9473;52.342;13.110;2022-09-09T02:41:15;1.95;;;1.50;;
18685;SDS011;9473;52.342;13.110;2022-09-09T02:43:42;2.08;;;1.50;;
18685;SDS011;9473;52.342;13.110;2022-09-09T02:46:13;2.00;;;1.75;;
18685;SDS011;9473;52.342;13.110;2022-09-09T02:48:47;4.82;;;2.20;;
18685;SDS011;9473;52.342;13.110;2022-09-09T02:51:21;4.50;;;2.40;;
18685;SDS011;9473;52.342;13.110;2022-09-09T02:53:52;4.50;;;2.40;;
18685;SDS011;9473;52.342;13.110;2022-09-09T02:56:24;3.47;;;2.15;;
18685;SDS011;9473;52.342;13.110;2022-09-09T02:58:53;2.60;;;2.10;;
18685;SDS011;9473;52.342;13.110;2022-09-09T03:01:20;6.10;;;2.10;;
18685;SDS011;9473;52.342;13.110;2022-09-09T03:03:47;2.30;;;1.77;;
18685;SDS011;9473;52.342;13.110;2022-09-09T03:06:14;4.03;;;2.88;;
18685;SDS011;9473;52.342;13.110;2022-09-09T03:08:43;4.82;;;2.35;;
18685;SDS011;9473;52.342;13.110;2022-09-09T03:11:09;12.57;;;3.35;;
18685;SDS011;9473;52.342;13.110;2022-09-09T03:13:37;4.43;;;2.97;;
18685;SDS011;9473;52.342;13.110;2022-09-09T03:16:04;5.68;;;2.85;;
18685;SDS011;9473;52.342;13.110;2022-09-09T03:18:32;4.15;;;2.97;;
18685;SDS011;9473;52.342;13.110;2022-09-09T03:20:59;4.82;;;3.42;;
18685;SDS011;9473;52.342;13.110;2022-09-09T03:23:26;5.55;;;3.67;;
18685;SDS011;9473;52.342;13.110;2022-09-09T03:25:55;5.53;;;3.45;;
18685;SDS011;9473;52.342;13.110;2022-09-09T03:28:23;5.50;;;3.40;;
18685;SDS011;9473;52.342;13.110;2022-09-09T03:30:57;6.45;;;3.80;;
18685;SDS011;9473;52.342;13.110;2022-09-09T03:33:24;6.45;;;3.90;;
18685;SDS011;9473;52.342;13.110;2022-09-09T03:35:51;8.65;;;4.03;;
18685;SDS011;9473;52.342;13.110;2022-09-09T03:38:21;5.95;;;3.72;;
18685;SDS011;9473;52.342;13.110;2022-09-09T03:40:48;9.32;;;4.18;;
18685;SDS011;9473;52.342;13.110;2022-09-09T03:43:17;7.65;;;3.78;;
18685;SDS011;9473;52.342;13.110;2022-09-09T03:45:45;5.40;;;3.95;;
18685;SDS011;9473;52.342;13.110;2022-09-09T03:48:12;8.23;;;3.83;;
18685;SDS011;9473;52.342;13.110;2022-09-09T03:50:43;7.47;;;4.00;;
18685;SDS011;9473;52.342;13.110;2022-09-09T03:53:10;11.00;;;3.95;;
18685;SDS011;9473;52.342;13.110;2022-09-09T03:55:37;9.05;;;3.90;;
18685;SDS011;9473;52.342;13.110;2022-09-09T03:58:06;8.43;;;4.78;;
18685;SDS011;9473;52.342;13.110;2022-09-09T04:00:34;6.22;;;3.97;;
18685;SDS011;9473;52.342;13.110;2022-09-09T04:03:01;6.97;;;4.35;;
18685;SDS011;9473;52.342;13.110;2022-09-09T04:05:28;10.50;;;4.00;;
18685;SDS011;9473;52.342;13.110;2022-09-09T04:07:55;6.85;;;3.80;;
18685;SDS011;9473;52.342;13.110;2022-09-09T04:10:22;8.23;;;4.18;;
18685;SDS011;9473;52.342;13.110;2022-09-09T04:12:49;8.57;;;3.67;;
18685;SDS011;9473;52.342;13.110;2022-09-09T04:15:17;6.43;;;3.00;;
18685;SDS011;9473;52.342;13.110;2022-09-09T04:17:45;7.07;;;3.00;;
18685;SDS011;9473;52.342;13.110;2022-09-09T04:20:12;6.60;;;3.70;;
18685;SDS011;9473;52.342;13.110;2022-09-09T04:22:39;6.90;;;3.40;;
18685;SDS011;9473;52.342;13.110;2022-09-09T04:25:07;4.95;;;3.20;;
18685;SDS011;9473;52.342;13.110;2022-09-09T04:27:34;6.13;;;3.08;;
18685;SDS011;9473;52.342;13.110;2022-09-09T04:30:01;6.00;;;3.35;;
18685;SDS011;9473;52.342;13.110;2022-09-09T04:32:27;3.08;;;2.20;;
18685;SDS011;9473;52.342;13.110;2022-09-09T04:34:56;4.70;;;2.50;;
18685;SDS011;9473;52.342;13.110;2022-09-09T04:37:23;3.80;;;2.92;;
18685;SDS011;9473;52.342;13.110;2022-09-09T04:39:50;4.20;;;2.90;;
18685;SDS011;9473;52.342;13.110;2022-09-09T04:42:16;4.68;;;2.97;;
18685;SDS011;9473;52.342;13.110;2022-09-09T04:44:44;6.05;;;3.45;;
18685;SDS011;9473;52.342;13.110;2022-09-09T04:47:11;6.53;;;3.03;;
18685;SDS011;9473;52.342;13.110;2022-09-09T04:49:39;9.15;;;2.97;;
18685;SDS011;9473;52.342;13.110;2022-09-09T04:52:07;6.75;;;3.10;;
18685;SDS011;9473;52.342;13.110;2022-09-09T04:54:34;4.53;;;2.83;;
18685;SDS011;9473;52.342;13.110;2022-09-09T04:57:01;5.00;;;2.72;;
18685;SDS011;9473;52.342;13.110;2022-09-09T04:59:28;6.63;;;3.20;;
18685;SDS011;9473;52.342;13.110;2022-09-09T05:01:55;4.75;;;3.08;;
18685;SDS011;9473;52.342;13.110;2022-09-09T05:04:22;7.65;;;3.20;;
18685;SDS011;9473;52.342;13.110;2022-09-09T05:06:49;5.05;;;2.70;;
18685;SDS011;9473;52.342;13.110;2022-09-09T05:09:17;3.38;;;2.20;;
18685;SDS011;9473;52.342;13.110;2022-09-09T05:11:44;6.10;;;2.22;;
18685;SDS011;9473;52.342;13.110;2022-09-09T05:14:11;3.88;;;2.38;;
18685;SDS011;9473;52.342;13.110;2022-09-09T05:16:39;2.65;;;2.10;;
18685;SDS011;9473;52.342;13.110;2022-09-09T05:19:09;3.08;;;2.20;;
18685;SDS011;9473;52.342;13.110;2022-09-09T05:21:36;4.50;;;3.00;;
18685;SDS011;9473;52.342;13.110;2022-09-09T05:24:03;5.20;;;2.65;;
18685;SDS011;9473;52.342;13.110;2022-09-09T05:26:31;3.10;;;2.10;;
18685;SDS011;9473;52.342;13.110;2022-09-09T05:28:58;5.20;;;2.38;;
18685;SDS011;9473;52.342;13.110;2022-09-09T05:31:26;6.10;;;2.60;;
18685;SDS011;9473;52.342;13.110;2022-09-09T05:33:54;5.57;;;2.75;;
18685;SDS011;9473;52.342;13.110;2022-09-09T05:36:21;3.50;;;2.35;;
18685;SDS011;9473;52.342;13.110;2022-09-09T05:38:48;3.47;;;2.65;;
18685;SDS011;9473;52.342;13.110;2022-09-09T05:41:16;3.72;;;2.90;;
18685;SDS011;9473;52.342;13.110;2022-09-09T05:43:45;7.85;;;3.38;;
18685;SDS011;9473;52.342;13.110;2022-09-09T05:46:14;4.57;;;3.15;;
18685;SDS011;9473;52.342;13.110;2022-09-09T05:48:42;7.75;;;3.53;;
18685;SDS011;9473;52.342;13.110;2022-09-09T05:51:12;3.67;;;2.95;;
18685;SDS011;9473;52.342;13.110;2022-09-09T05:53:40;4.65;;;2.97;;
18685;SDS011;9473;52.342;13.110;2022-09-09T05:56:08;6.35;;;3.60;;
18685;SDS011;9473;52.342;13.110;2022-09-09T05:58:36;4.88;;;3.55;;
18685;SDS011;9473;52.342;13.110;2022-09-09T06:01:05;10.63;;;3.30;;
18685;SDS011;9473;52.342;13.110;2022-09-09T06:03:34;6.60;;;3.15;;
18685;SDS011;9473;52.342;13.110;2022-09-09T06:06:02;8.05;;;3.45;;
18685;SDS011;9473;52.342;13.110;2022-09-09T06:08:30;3.47;;;2.78;;
18685;SDS011;9473;52.342;13.110;2022-09-09T06:11:00;4.15;;;2.90;;
18685;SDS011;9473;52.342;13.110;2022-09-09T06:13:28;5.15;;;3.50;;
18685;SDS011;9473;52.342;13.110;2022-09-09T06:15:55;4.30;;;2.65;;
18685;SDS011;9473;52.342;13.110;2022-09-09T06:18:24;3.88;;;2.58;;
18685;SDS011;9473;52.342;13.110;2022-09-09T06:20:55;4.55;;;2.92;;
18685;SDS011;9473;52.342;13.110;2022-09-09T06:23:21;4.10;;;3.10;;
18685;SDS011;9473;52.342;13.110;2022-09-09T06:25:48;5.95;;;3.38;;
18685;SDS011;9473;52.342;13.110;2022-09-09T06:28:15;4.95;;;3.38;;
18685;SDS011;9473;52.342;13.110;2022-09-09T06:30:43;4.72;;;3.28;;
18685;SDS011;9473;52.342;13.110;2022-09-09T06:33:10;4.40;;;3.00;;
18685;SDS011;9473;52.342;13.110;2022-09-09T06:35:38;6.85;;;3.70;;
18685;SDS011;9473;52.342;13.110;2022-09-09T06:38:05;5.15;;;3.70;;
18685;SDS011;9473;52.342;13.110;2022-09-09T06:40:33;5.43;;;3.45;;
18685;SDS011;9473;52.342;13.110;2022-09-09T06:43:00;5.47;;;3.30;;
18685;SDS011;9473;52.342;13.110;2022-09-09T06:45:27;7.03;;;3.17;;
18685;SDS011;9473;52.342;13.110;2022-09-09T06:47:55;7.70;;;3.63;;
18685;SDS011;9473;52.342;13.110;2022-09-09T06:50:22;4.80;;;3.13;;
18685;SDS011;9473;52.342;13.110;2022-09-09T06:52:50;5.03;;;3.67;;
18685;SDS011;9473;52.342;13.110;2022-09-09T06:55:17;5.72;;;3.50;;
18685;SDS011;9473;52.342;13.110;2022-09-09T06:57:45;5.28;;;3.13;;
18685;SDS011;9473;52.342;13.110;2022-09-09T07:00:13;5.65;;;3.85;;
18685;SDS011;9473;52.342;13.110;2022-09-09T07:02:40;5.78;;;3.50;;
18685;SDS011;9473;52.342;13.110;2022-09-09T07:05:07;5.35;;;3.38;;
18685;SDS011;9473;52.342;13.110;2022-09-09T07:07:35;4.88;;;3.00;;
18685;SDS011;9473;52.342;13.110;2022-09-09T07:10:04;7.15;;;3.42;;
18685;SDS011;9473;52.342;13.110;2022-09-09T07:12:32;5.03;;;2.78;;
18685;SDS011;9473;52.342;13.110;2022-09-09T07:14:59;5.93;;;3.10;;
18685;SDS011;9473;52.342;13.110;2022-09-09T07:17:26;5.63;;;3.20;;
18685;SDS011;9473;52.342;13.110;2022-09-09T07:19:54;5.13;;;2.70;;
18685;SDS011;9473;52.342;13.110;2022-09-09T07:22:21;5.65;;;3.22;;
18685;SDS011;9473;52.342;13.110;2022-09-09T07:24:49;6.28;;;2.92;;
18685;SDS011;9473;52.342;13.110;2022-09-09T07:27:17;6.60;;;3.10;;
18685;SDS011;9473;52.342;13.110;2022-09-09T07:29:44;6.50;;;3.20;;
18685;SDS011;9473;52.342;13.110;2022-09-09T07:32:11;4.65;;;3.13;;
18685;SDS011;9473;52.342;13.110;2022-09-09T07:34:38;4.43;;;2.80;;
18685;SDS011;9473;52.342;13.110;2022-09-09T07:37:05;12.43;;;3.13;;
18685;SDS011;9473;52.342;13.110;2022-09-09T07:39:36;6.43;;;2.90;;
18685;SDS011;9473;52.342;13.110;2022-09-09T07:42:05;8.07;;;2.83;;
18685;SDS011;9473;52.342;13.110;2022-09-09T07:44:35;5.25;;;2.55;;
18685;SDS011;9473;52.342;13.110;2022-09-09T07:47:04;6.93;;;3.00;;
18685;SDS011;9473;52.342;13.110;2022-09-09T07:49:31;4.65;;;2.90;;
18685;SDS011;9473;52.342;13.110;2022-09-09T07:51:59;6.43;;;2.70;;
18685;SDS011;9473;52.342;13.110;2022-09-09T07:54:26;7.22;;;2.70;;
18685;SDS011;9473;52.342;13.110;2022-09-09T07:56:53;7.78;;;3.08;;
18685;SDS011;9473;52.342;13.110;2022-09-09T07:59:20;6.10;;;2.60;;
18685;SDS011;9473;52.342;13.110;2022-09-09T08:01:49;4.95;;;2.90;;
18685;SDS011;9473;52.342;13.110;2022-09-09T08:04:20;4.55;;;2.67;;
18685;SDS011;9473;52.342;13.110;2022-09-09T08:06:47;7.68;;;3.08;;
18685;SDS011;9473;52.342;13.110;2022-09-09T08:09:15;4.15;;;2.33;;
18685;SDS011;9473;52.342;13.110;2022-09-09T08:11:44;6.43;;;2.55;;
18685;SDS011;9473;52.342;13.110;2022-09-09T08:14:12;9.43;;;3.08;;
18685;SDS011;9473;52.342;13.110;2022-09-09T08:16:40;5.82;;;2.75;;
18685;SDS011;9473;52.342;13.110;2022-09-09T08:19:09;7.47;;;2.88;;
18685;SDS011;9473;52.342;13.110;2022-09-09T08:21:36;4.32;;;2.65;;
18685;SDS011;9473;52.342;13.110;2022-09-09T08:24:05;3.40;;;2.40;;
18685;SDS011;9473;52.342;13.110;2022-09-09T08:26:33;4.45;;;2.70;;
18685;SDS011;9473;52.342;13.110;2022-09-09T08:29:01;6.40;;;2.60;;
18685;SDS011;9473;52.342;13.110;2022-09-09T08:31:29;6.57;;;2.70;;
18685;SDS011;9473;52.342;13.110;2022-09-09T08:33:57;8.25;;;2.50;;
18685;SDS011;9473;52.342;13.110;2022-09-09T08:36:27;5.25;;;2.85;;
18685;SDS011;9473;52.342;13.110;2022-09-09T08:38:55;5.93;;;2.58;;
18685;SDS011;9473;52.342;13.110;2022-09-09T08:41:28;6.80;;;2.58;;
18685;SDS011;9473;52.342;13.110;2022-09-09T08:44:00;4.75;;;2.45;;
18685;SDS011;9473;52.342;13.110;2022-09-09T08:46:30;4.57;;;2.60;;
18685;SDS011;9473;52.342;13.110;2022-09-09T08:49:00;7.88;;;3.05;;
18685;SDS011;9473;52.342;13.110;2022-09-09T08:51:30;4.35;;;2.95;;
18685;SDS011;9473;52.342;13.110;2022-09-09T08:53:58;7.13;;;3.05;;
18685;SDS011;9473;52.342;13.110;2022-09-09T08:56:26;3.33;;;2.72;;
18685;SDS011;9473;52.342;13.110;2022-09-09T08:58:54;4.30;;;2.63;;
18685;SDS011;9473;52.342;13.110;2022-09-09T09:01:27;5.85;;;2.50;;
18685;SDS011;9473;52.342;13.110;2022-09-09T09:03:59;5.78;;;2.78;;
18685;SDS011;9473;52.342;13.110;2022-09-09T09:06:33;4.78;;;2.50;;
18685;SDS011;9473;52.342;13.110;2022-09-09T09:09:04;6.55;;;2.30;;
18685;SDS011;9473;52.342;13.110;2022-09-09T09:11:36;5.95;;;2.00;;
18685;SDS011;9473;52.342;13.110;2022-09-09T09:14:07;3.13;;;2.20;;
18685;SDS011;9473;52.342;13.110;2022-09-09T09:16:38;5.15;;;2.10;;
18685;SDS011;9473;52.342;13.110;2022-09-09T09:19:08;4.22;;;2.13;;
18685;SDS011;9473;52.342;13.110;2022-09-09T09:21:42;5.35;;;2.30;;
18685;SDS011;9473;52.342;13.110;2022-09-09T09:24:13;5.45;;;1.88;;
18685;SDS011;9473;52.342;13.110;2022-09-09T09:26:43;5.07;;;1.88;;
18685;SDS011;9473;52.342;13.110;2022-09-09T09:29:11;3.47;;;2.10;;
18685;SDS011;9473;52.342;13.110;2022-09-09T09:31:41;5.00;;;1.60;;
18685;SDS011;9473;52.342;13.110;2022-09-09T09:34:08;4.43;;;1.88;;
18685;SDS011;9473;52.342;13.110;2022-09-09T09:36:38;5.38;;;2.03;;
18685;SDS011;9473;52.342;13.110;2022-09-09T09:39:08;3.17;;;1.73;;
18685;SDS011;9473;52.342;13.110;2022-09-09T09:41:36;4.10;;;1.85;;
18685;SDS011;9473;52.342;13.110;2022-09-09T09:44:04;6.22;;;1.50;;
18685;SDS011;9473;52.342;13.110;2022-09-09T09:46:32;5.57;;;1.55;;
18685;SDS011;9473;52.342;13.110;2022-09-09T09:48:59;5.38;;;1.73;;
18685;SDS011;9473;52.342;13.110;2022-09-09T09:51:27;5.28;;;1.60;;
18685;SDS011;9473;52.342;13.110;2022-09-09T09:54:01;3.88;;;1.60;;
18685;SDS011;9473;52.342;13.110;2022-09-09T09:56:31;4.80;;;1.70;;
18685;SDS011;9473;52.342;13.110;2022-09-09T09:58:58;2.92;;;1.90;;
18685;SDS011;9473;52.342;13.110;2022-09-09T10:01:26;6.35;;;1.88;;
18685;SDS011;9473;52.342;13.110;2022-09-09T10:03:55;3.95;;;1.60;;
18685;SDS011;9473;52.342;13.110;2022-09-09T10:06:30;7.55;;;1.60;;
18685;SDS011;9473;52.342;13.110;2022-09-09T10:08:58;3.28;;;1.67;;
18685;SDS011;9473;52.342;13.110;2022-09-09T10:11:27;5.70;;;2.05;;
18685;SDS011;9473;52.342;13.110;2022-09-09T10:14:00;6.32;;;1.70;;
18685;SDS011;9473;52.342;13.110;2022-09-09T10:16:38;3.08;;;1.42;;
18685;SDS011;9473;52.342;13.110;2022-09-09T10:19:08;4.60;;;1.45;;
18685;SDS011;9473;52.342;13.110;2022-09-09T10:24:28;3.42;;;1.50;;
18685;SDS011;9473;52.342;13.110;2022-09-09T10:26:58;6.13;;;1.73;;
18685;SDS011;9473;52.342;13.110;2022-09-09T10:29:34;3.63;;;1.27;;
18685;SDS011;9473;52.342;13.110;2022-09-09T10:32:08;3.72;;;1.35;;
18685;SDS011;9473;52.342;13.110;2022-09-09T10:34:42;2.28;;;1.02;;
18685;SDS011;9473;52.342;13.110;2022-09-09T10:37:12;4.85;;;1.48;;
18685;SDS011;9473;52.342;13.110;2022-09-09T10:39:43;6.93;;;1.60;;
18685;SDS011;9473;52.342;13.110;2022-09-09T10:42:12;3.33;;;1.30;;
18685;SDS011;9473;52.342;13.110;2022-09-09T10:44:46;2.47;;;1.13;;
18685;SDS011;9473;52.342;13.110;2022-09-09T10:47:20;2.45;;;1.30;;
18685;SDS011;9473;52.342;13.110;2022-09-09T10:49:54;1.92;;;1.42;;
18685;SDS011;9473;52.342;13.110;2022-09-09T10:52:27;1.50;;;1.10;;
18685;SDS011;9473;52.342;13.110;2022-09-09T10:54:59;3.45;;;1.38;;
18685;SDS011;9473;52.342;13.110;2022-09-09T10:57:28;4.45;;;1.30;;
18685;SDS011;9473;52.342;13.110;2022-09-09T10:59:58;3.58;;;1.30;;
18685;SDS011;9473;52.342;13.110;2022-09-09T11:02:29;6.10;;;1.33;;
18685;SDS011;9473;52.342;13.110;2022-09-09T11:04:57;5.28;;;1.38;;
18685;SDS011;9473;52.342;13.110;2022-09-09T11:07:28;3.67;;;1.20;;
18685;SDS011;9473;52.342;13.110;2022-09-09T11:09:58;5.35;;;1.27;;
18685;SDS011;9473;52.342;13.110;2022-09-09T11:12:26;3.72;;;1.13;;
18685;SDS011;9473;52.342;13.110;2022-09-09T11:14:54;4.57;;;1.25;;
18685;SDS011;9473;52.342;13.110;2022-09-09T11:17:26;2.70;;;1.30;;
18685;SDS011;9473;52.342;13.110;2022-09-09T11:19:55;5.38;;;1.40;;
18685;SDS011;9473;52.342;13.110;2022-09-09T11:22:24;3.88;;;1.00;;
18685;SDS011;9473;52.342;13.110;2022-09-09T11:24:54;3.50;;;1.02;;
18685;SDS011;9473;52.342;13.110;2022-09-09T11:27:24;3.17;;;1.15;;
18685;SDS011;9473;52.342;13.110;2022-09-09T11:30:04;3.42;;;1.05;;
18685;SDS011;9473;52.342;13.110;2022-09-09T11:35:24;4.10;;;1.00;;
18685;SDS011;9473;52.342;13.110;2022-09-09T11:37:56;3.30;;;1.13;;
18685;SDS011;9473;52.342;13.110;2022-09-09T11:40:30;1.90;;;0.80;;
18685;SDS011;9473;52.342;13.110;2022-09-09T11:43:01;2.00;;;0.90;;
18685;SDS011;9473;52.342;13.110;2022-09-09T11:45:28;2.47;;;0.95;;
18685;SDS011;9473;52.342;13.110;2022-09-09T11:47:56;3.63;;;1.00;;
18685;SDS011;9473;52.342;13.110;2022-09-09T11:50:29;4.18;;;1.02;;
18685;SDS011;9473;52.342;13.110;2022-09-09T11:53:04;3.08;;;0.82;;
18685;SDS011;9473;52.342;13.110;2022-09-09T11:55:32;6.28;;;1.13;;
18685;SDS011;9473;52.342;13.110;2022-09-09T11:58:02;3.55;;;1.05;;
18685;SDS011;9473;52.342;13.110;2022-09-09T12:00:31;2.45;;;0.90;;
18685;SDS011;9473;52.342;13.110;2022-09-09T12:02:59;3.47;;;0.98;;
18685;SDS011;9473;52.342;13.110;2022-09-09T12:05:35;3.15;;;0.90;;
18685;SDS011;9473;52.342;13.110;2022-09-09T12:08:03;2.45;;;1.10;;
18685;SDS011;9473;52.342;13.110;2022-09-09T12:10:31;3.70;;;1.02;;
18685;SDS011;9473;52.342;13.110;2022-09-09T12:13:07;3.05;;;0.95;;
18685;SDS011;9473;52.342;13.110;2022-09-09T12:15:35;2.50;;;1.05;;
18685;SDS011;9473;52.342;13.110;2022-09-09T12:18:14;2.85;;;0.90;;
18685;SDS011;9473;52.342;13.110;2022-09-09T12:20:42;7.40;;;1.02;;
18685;SDS011;9473;52.342;13.110;2022-09-09T12:23:22;2.28;;;1.10;;
18685;SDS011;9473;52.342;13.110;2022-09-09T12:26:00;2.00;;;1.00;;
18685;SDS011;9473;52.342;13.110;2022-09-09T12:28:33;4.40;;;1.15;;
18685;SDS011;9473;52.342;13.110;2022-09-09T12:31:07;5.10;;;1.10;;
18685;SDS011;9473;52.342;13.110;2022-09-09T12:33:39;3.70;;;1.30;;
18685;SDS011;9473;52.342;13.110;2022-09-09T12:36:11;3.70;;;1.10;;
18685;SDS011;9473;52.342;13.110;2022-09-09T12:38:39;2.35;;;1.00;;
18685;SDS011;9473;52.342;13.110;2022-09-09T12:41:15;3.63;;;1.10;;
18685;SDS011;9473;52.342;13.110;2022-09-09T12:43:45;4.13;;;1.48;;
18685;SDS011;9473;52.342;13.110;2022-09-09T12:46:13;5.25;;;1.13;;
18685;SDS011;9473;52.342;13.110;2022-09-09T12:48:44;4.40;;;1.10;;
18685;SDS011;9473;52.342;13.110;2022-09-09T12:51:18;2.45;;;1.17;;
18685;SDS011;9473;52.342;13.110;2022-09-09T12:53:45;3.25;;;1.00;;
18685;SDS011;9473;52.342;13.110;2022-09-09T12:56:18;2.45;;;1.13;;
18685;SDS011;9473;52.342;13.110;2022-09-09T12:58:45;3.83;;;1.30;;
18685;SDS011;9473;52.342;13.110;2022-09-09T13:01:18;2.90;;;1.20;;
18685;SDS011;9473;52.342;13.110;2022-09-09T13:03:47;8.20;;;1.10;;
18685;SDS011;9473;52.342;13.110;2022-09-09T13:06:18;3.15;;;1.00;;
18685;SDS011;9473;52.342;13.110;2022-09-09T13:08:47;4.05;;;1.00;;
18685;SDS011;9473;52.342;13.110;2022-09-09T13:11:15;4.10;;;1.30;;
18685;SDS011;9473;52.342;13.110;2022-09-09T13:13:49;2.05;;;0.90;;
18685;SDS011;9473;52.342;13.110;2022-09-09T13:16:18;6.43;;;1.10;;
18685;SDS011;9473;52.342;13.110;2022-09-09T13:18:45;2.15;;;1.00;;
18685;SDS011;9473;52.342;13.110;2022-09-09T13:21:12;1.17;;;0.90;;
18685;SDS011;9473;52.342;13.110;2022-09-09T13:23:41;1.63;;;0.98;;
18685;SDS011;9473;52.342;13.110;2022-09-09T13:26:20;2.95;;;1.10;;
18685;SDS011;9473;52.342;13.110;2022-09-09T13:28:47;3.47;;;1.08;;
18685;SDS011;9473;52.342;13.110;2022-09-09T13:31:19;3.03;;;1.25;;
18685;SDS011;9473;52.342;13.110;2022-09-09T13:33:46;5.43;;;1.40;;
18685;SDS011;9473;52.342;13.110;2022-09-09T13:36:13;3.22;;;1.10;;
18685;SDS011;9473;52.342;13.110;2022-09-09T13:38:53;4.50;;;0.95;;
18685;SDS011;9473;52.342;13.110;2022-09-09T13:41:20;2.67;;;1.00;;
18685;SDS011;9473;52.342;13.110;2022-09-09T13:43:48;2.70;;;0.80;;
18685;SDS011;9473;52.342;13.110;2022-09-09T13:46:32;2.90;;;0.95;;
18685;SDS011;9473;52.342;13.110;2022-09-09T13:49:00;4.03;;;1.10;;
18685;SDS011;9473;52.342;13.110;2022-09-09T13:51:29;2.28;;;1.00;;
18685;SDS011;9473;52.342;13.110;2022-09-09T13:54:00;3.35;;;1.00;;
18685;SDS011;9473;52.342;13.110;2022-09-09T13:56:27;2.80;;;1.00;;
18685;SDS011;9473;52.342;13.110;2022-09-09T13:58:54;1.98;;;0.98;;
18685;SDS011;9473;52.342;13.110;2022-09-09T14:01:22;5.55;;;1.05;;
18685;SDS011;9473;52.342;13.110;2022-09-09T14:03:49;2.33;;;0.90;;
18685;SDS011;9473;52.342;13.110;2022-09-09T14:06:17;2.35;;;0.90;;
18685;SDS011;9473;52.342;13.110;2022-09-09T14:08:46;6.82;;;1.27;;
18685;SDS011;9473;52.342;13.110;2022-09-09T14:11:15;3.85;;;1.10;;
18685;SDS011;9473;52.342;13.110;2022-09-09T14:13:42;3.83;;;1.10;;
18685;SDS011;9473;52.342;13.110;2022-09-09T14:16:09;3.17;;;1.10;;
18685;SDS011;9473;52.342;13.110;2022-09-09T14:18:36;7.22;;;1.00;;
18685;SDS011;9473;52.342;13.110;2022-09-09T14:21:04;4.93;;;1.30;;
18685;SDS011;9473;52.342;13.110;2022-09-09T14:23:31;5.20;;;1.23;;
18685;SDS011;9473;52.342;13.110;2022-09-09T14:25:58;4.07;;;1.25;;
18685;SDS011;9473;52.342;13.110;2022-09-09T14:28:26;3.92;;;1.20;;
18685;SDS011;9473;52.342;13.110;2022-09-09T14:30:53;3.35;;;0.98;;
18685;SDS011;9473;52.342;13.110;2022-09-09T14:33:20;2.58;;;1.10;;
18685;SDS011;9473;52.342;13.110;2022-09-09T14:35:47;4.47;;;1.17;;
18685;SDS011;9473;52.342;13.110;2022-09-09T14:38:16;4.53;;;1.10;;
18685;SDS011;9473;52.342;13.110;2022-09-09T14:40:46;5.90;;;0.93;;
18685;SDS011;9473;52.342;13.110;2022-09-09T14:43:13;2.92;;;1.00;;
18685;SDS011;9473;52.342;13.110;2022-09-09T14:45:41;3.00;;;1.00;;
18685;SDS011;9473;52.342;13.110;2022-09-09T14:48:09;4.55;;;1.00;;
18685;SDS011;9473;52.342;13.110;2022-09-09T14:50:36;4.22;;;1.10;;
18685;SDS011;9473;52.342;13.110;2022-09-09T14:53:04;2.33;;;1.10;;
18685;SDS011;9473;52.342;13.110;2022-09-09T14:55:32;2.47;;;1.00;;
18685;SDS011;9473;52.342;13.110;2022-09-09T14:57:59;3.00;;;1.10;;
18685;SDS011;9473;52.342;13.110;2022-09-09T15:00:26;3.95;;;1.10;;
18685;SDS011;9473;52.342;13.110;2022-09-09T15:02:54;2.72;;;1.17;;
18685;SDS011;9473;52.342;13.110;2022-09-09T15:05:21;2.65;;;1.38;;